sensor_id;sensor_type;location;lat;lon;timestamp;P1;durP1;ratioP1;P2;durP2;ratioP2
55647;SDS011;45266;48.756;9.246;2022-07-30T00:00:29;8.25;;;7.45;;
55647;SDS011;45266;48.756;9.246;2022-07-30T00:01:31;8.63;;;7.22;;
55647;SDS011;45266;48.756;9.246;2022-07-30T00:02:36;7.40;;;6.70;;
55647;SDS011;45266;48.756;9.246;2022-07-30T00:03:38;9.02;;;7.75;;
55647;SDS011;45266;48.756;9.246;2022-07-30T00:04:39;8.88;;;6.50;;
55647;SDS011;45266;48.756;9.246;2022-07-30T00:05:42;8.75;;;7.05;;
55647;SDS011;45266;48.756;9.246;2022-07-30T00:06:43;8.48;;;6.90;;
55647;SDS011;45266;48.756;9.246;2022-07-30T00:07:45;9.13;;;7.20;;
55647;SDS011;45266;48.756;9.246;2022-07-30T00:08:47;11.38;;;6.63;;
55647;SDS011;45266;48.756;9.246;2022-07-30T00:09:49;10.48;;;7.32;;
55647;SDS011;45266;48.756;9.246;2022-07-30T00:10:51;7.53;;;6.40;;
55647;SDS011;45266;48.756;9.246;2022-07-30T00:11:52;7.13;;;6.43;;
55647;SDS011;45266;48.756;9.246;2022-07-30T00:12:54;8.80;;;6.57;;
55647;SDS011;45266;48.756;9.246;2022-07-30T00:13:57;6.30;;;5.80;;
55647;SDS011;45266;48.756;9.246;2022-07-30T00:14:59;9.88;;;6.43;;
55647;SDS011;45266;48.756;9.246;2022-07-30T00:16:00;9.85;;;6.75;;
55647;SDS011;45266;48.756;9.246;2022-07-30T00:17:03;6.28;;;5.72;;
55647;SDS011;45266;48.756;9.246;2022-07-30T00:18:05;9.82;;;6.80;;
55647;SDS011;45266;48.756;9.246;2022-07-30T00:19:07;7.18;;;6.47;;
55647;SDS011;45266;48.756;9.246;2022-07-30T00:20:10;7.70;;;7.03;;
55647;SDS011;45266;48.756;9.246;2022-07-30T00:21:14;9.15;;;6.68;;
55647;SDS011;45266;48.756;9.246;2022-07-30T00:22:34;10.70;;;6.57;;
55647;SDS011;45266;48.756;9.246;2022-07-30T00:23:36;7.22;;;6.18;;
55647;SDS011;45266;48.756;9.246;2022-07-30T00:24:38;11.57;;;6.32;;
55647;SDS011;45266;48.756;9.246;2022-07-30T00:25:40;10.55;;;7.15;;
55647;SDS011;45266;48.756;9.246;2022-07-30T00:26:41;8.75;;;7.72;;
55647;SDS011;45266;48.756;9.246;2022-07-30T00:27:43;7.70;;;6.97;;
55647;SDS011;45266;48.756;9.246;2022-07-30T00:28:45;11.10;;;6.90;;
55647;SDS011;45266;48.756;9.246;2022-07-30T00:29:47;8.95;;;7.00;;
55647;SDS011;45266;48.756;9.246;2022-07-30T00:30:49;7.80;;;6.55;;
55647;SDS011;45266;48.756;9.246;2022-07-30T00:31:56;7.95;;;7.15;;
55647;SDS011;45266;48.756;9.246;2022-07-30T00:32:58;8.48;;;6.90;;
55647;SDS011;45266;48.756;9.246;2022-07-30T00:33:59;6.50;;;5.90;;
55647;SDS011;45266;48.756;9.246;2022-07-30T00:35:01;7.25;;;6.22;;
55647;SDS011;45266;48.756;9.246;2022-07-30T00:36:03;8.02;;;6.05;;
55647;SDS011;45266;48.756;9.246;2022-07-30T00:37:05;6.75;;;6.15;;
55647;SDS011;45266;48.756;9.246;2022-07-30T00:38:07;6.90;;;6.20;;
55647;SDS011;45266;48.756;9.246;2022-07-30T00:39:09;7.55;;;5.88;;
55647;SDS011;45266;48.756;9.246;2022-07-30T00:40:10;6.68;;;6.03;;
55647;SDS011;45266;48.756;9.246;2022-07-30T00:41:12;9.57;;;7.28;;
55647;SDS011;45266;48.756;9.246;2022-07-30T00:42:15;7.85;;;6.65;;
55647;SDS011;45266;48.756;9.246;2022-07-30T00:43:23;7.90;;;6.15;;
55647;SDS011;45266;48.756;9.246;2022-07-30T00:44:25;9.70;;;6.18;;
55647;SDS011;45266;48.756;9.246;2022-07-30T00:45:27;6.80;;;5.78;;
55647;SDS011;45266;48.756;9.246;2022-07-30T00:46:29;6.30;;;5.75;;
55647;SDS011;45266;48.756;9.246;2022-07-30T00:47:31;6.82;;;6.03;;
55647;SDS011;45266;48.756;9.246;2022-07-30T00:48:33;12.00;;;6.28;;
55647;SDS011;45266;48.756;9.246;2022-07-30T00:49:35;7.65;;;6.60;;
55647;SDS011;45266;48.756;9.246;2022-07-30T00:50:41;6.68;;;6.07;;
55647;SDS011;45266;48.756;9.246;2022-07-30T00:51:45;9.30;;;6.80;;
55647;SDS011;45266;48.756;9.246;2022-07-30T00:52:47;7.60;;;6.15;;
55647;SDS011;45266;48.756;9.246;2022-07-30T00:53:49;6.00;;;5.50;;
55647;SDS011;45266;48.756;9.246;2022-07-30T00:54:51;6.45;;;5.80;;
55647;SDS011;45266;48.756;9.246;2022-07-30T00:55:53;7.38;;;6.53;;
55647;SDS011;45266;48.756;9.246;2022-07-30T00:56:55;7.32;;;6.47;;
55647;SDS011;45266;48.756;9.246;2022-07-30T00:57:57;6.88;;;5.95;;
55647;SDS011;45266;48.756;9.246;2022-07-30T00:58:59;7.80;;;5.50;;
55647;SDS011;45266;48.756;9.246;2022-07-30T01:00:00;6.75;;;6.15;;
55647;SDS011;45266;48.756;9.246;2022-07-30T01:01:03;6.20;;;5.53;;
55647;SDS011;45266;48.756;9.246;2022-07-30T01:02:05;6.60;;;5.80;;
55647;SDS011;45266;48.756;9.246;2022-07-30T01:03:07;6.20;;;5.60;;
55647;SDS011;45266;48.756;9.246;2022-07-30T01:04:09;6.78;;;6.18;;
55647;SDS011;45266;48.756;9.246;2022-07-30T01:05:14;7.05;;;5.57;;
55647;SDS011;45266;48.756;9.246;2022-07-30T01:06:16;6.25;;;5.65;;
55647;SDS011;45266;48.756;9.246;2022-07-30T01:07:18;5.75;;;5.28;;
55647;SDS011;45266;48.756;9.246;2022-07-30T01:08:20;8.23;;;5.50;;
55647;SDS011;45266;48.756;9.246;2022-07-30T01:09:21;8.07;;;6.10;;
55647;SDS011;45266;48.756;9.246;2022-07-30T01:10:23;7.25;;;6.40;;
55647;SDS011;45266;48.756;9.246;2022-07-30T01:11:26;6.30;;;5.63;;
55647;SDS011;45266;48.756;9.246;2022-07-30T01:12:35;8.25;;;6.63;;
55647;SDS011;45266;48.756;9.246;2022-07-30T01:13:37;7.07;;;6.47;;
55647;SDS011;45266;48.756;9.246;2022-07-30T01:14:39;9.57;;;6.32;;
55647;SDS011;45266;48.756;9.246;2022-07-30T01:15:41;7.90;;;6.15;;
55647;SDS011;45266;48.756;9.246;2022-07-30T01:16:44;11.48;;;6.30;;
55647;SDS011;45266;48.756;9.246;2022-07-30T01:17:47;6.45;;;5.85;;
55647;SDS011;45266;48.756;9.246;2022-07-30T01:18:53;7.45;;;5.85;;
55647;SDS011;45266;48.756;9.246;2022-07-30T01:20:18;5.80;;;5.35;;
55647;SDS011;45266;48.756;9.246;2022-07-30T01:21:27;7.53;;;6.35;;
55647;SDS011;45266;48.756;9.246;2022-07-30T01:22:49;7.30;;;6.60;;
55647;SDS011;45266;48.756;9.246;2022-07-30T01:24:32;10.77;;;6.10;;
55647;SDS011;45266;48.756;9.246;2022-07-30T01:25:43;8.50;;;5.78;;
55647;SDS011;45266;48.756;9.246;2022-07-30T01:26:58;7.60;;;6.10;;
55647;SDS011;45266;48.756;9.246;2022-07-30T01:28:11;8.82;;;6.45;;
55647;SDS011;45266;48.756;9.246;2022-07-30T01:29:18;8.43;;;6.68;;
55647;SDS011;45266;48.756;9.246;2022-07-30T01:30:22;7.78;;;6.35;;
55647;SDS011;45266;48.756;9.246;2022-07-30T01:31:27;7.25;;;6.18;;
55647;SDS011;45266;48.756;9.246;2022-07-30T01:32:30;7.80;;;5.70;;
55647;SDS011;45266;48.756;9.246;2022-07-30T01:33:35;7.07;;;5.70;;
55647;SDS011;45266;48.756;9.246;2022-07-30T01:34:40;6.95;;;6.25;;
55647;SDS011;45266;48.756;9.246;2022-07-30T01:35:44;6.88;;;6.18;;
55647;SDS011;45266;48.756;9.246;2022-07-30T01:36:48;8.02;;;6.90;;
55647;SDS011;45266;48.756;9.246;2022-07-30T01:37:51;6.63;;;6.00;;
55647;SDS011;45266;48.756;9.246;2022-07-30T01:38:54;7.63;;;6.13;;
55647;SDS011;45266;48.756;9.246;2022-07-30T01:39:57;9.38;;;5.97;;
55647;SDS011;45266;48.756;9.246;2022-07-30T01:41:00;6.72;;;6.00;;
55647;SDS011;45266;48.756;9.246;2022-07-30T01:42:03;6.47;;;5.97;;
55647;SDS011;45266;48.756;9.246;2022-07-30T01:43:08;7.18;;;6.57;;
55647;SDS011;45266;48.756;9.246;2022-07-30T01:44:11;7.72;;;6.30;;
55647;SDS011;45266;48.756;9.246;2022-07-30T01:45:24;12.15;;;6.80;;
55647;SDS011;45266;48.756;9.246;2022-07-30T01:46:28;8.48;;;6.75;;
55647;SDS011;45266;48.756;9.246;2022-07-30T01:47:32;8.40;;;6.50;;
55647;SDS011;45266;48.756;9.246;2022-07-30T01:48:36;8.57;;;6.30;;
55647;SDS011;45266;48.756;9.246;2022-07-30T01:49:41;7.25;;;6.57;;
55647;SDS011;45266;48.756;9.246;2022-07-30T01:50:47;7.22;;;6.53;;
55647;SDS011;45266;48.756;9.246;2022-07-30T01:51:51;7.00;;;6.40;;
55647;SDS011;45266;48.756;9.246;2022-07-30T01:52:55;10.27;;;6.85;;
55647;SDS011;45266;48.756;9.246;2022-07-30T01:53:59;7.80;;;7.00;;
55647;SDS011;45266;48.756;9.246;2022-07-30T01:55:02;6.97;;;6.38;;
55647;SDS011;45266;48.756;9.246;2022-07-30T01:56:17;9.70;;;6.10;;
55647;SDS011;45266;48.756;9.246;2022-07-30T01:57:25;7.40;;;6.50;;
55647;SDS011;45266;48.756;9.246;2022-07-30T01:58:28;7.38;;;6.70;;
55647;SDS011;45266;48.756;9.246;2022-07-30T01:59:35;7.20;;;6.50;;
55647;SDS011;45266;48.756;9.246;2022-07-30T02:00:39;7.75;;;6.20;;
55647;SDS011;45266;48.756;9.246;2022-07-30T02:01:44;8.90;;;6.82;;
55647;SDS011;45266;48.756;9.246;2022-07-30T02:02:46;7.45;;;6.22;;
55647;SDS011;45266;48.756;9.246;2022-07-30T02:03:48;10.25;;;7.13;;
55647;SDS011;45266;48.756;9.246;2022-07-30T02:04:50;8.20;;;6.57;;
55647;SDS011;45266;48.756;9.246;2022-07-30T02:05:56;6.97;;;6.28;;
55647;SDS011;45266;48.756;9.246;2022-07-30T02:07:05;8.50;;;7.07;;
55647;SDS011;45266;48.756;9.246;2022-07-30T02:08:16;8.55;;;7.35;;
55647;SDS011;45266;48.756;9.246;2022-07-30T02:09:27;8.43;;;7.00;;
55647;SDS011;45266;48.756;9.246;2022-07-30T02:11:46;8.98;;;6.55;;
55647;SDS011;45266;48.756;9.246;2022-07-30T02:13:09;7.95;;;6.20;;
55647;SDS011;45266;48.756;9.246;2022-07-30T02:14:18;9.85;;;6.22;;
55647;SDS011;45266;48.756;9.246;2022-07-30T02:15:46;6.93;;;6.18;;
55647;SDS011;45266;48.756;9.246;2022-07-30T02:16:47;8.43;;;6.70;;
55647;SDS011;45266;48.756;9.246;2022-07-30T02:19:39;7.60;;;5.75;;
55647;SDS011;45266;48.756;9.246;2022-07-30T02:20:47;9.77;;;6.35;;
55647;SDS011;45266;48.756;9.246;2022-07-30T02:22:03;8.65;;;6.28;;
55647;SDS011;45266;48.756;9.246;2022-07-30T02:23:09;7.82;;;6.95;;
55647;SDS011;45266;48.756;9.246;2022-07-30T02:24:14;8.73;;;6.65;;
55647;SDS011;45266;48.756;9.246;2022-07-30T02:25:20;6.40;;;5.80;;
55647;SDS011;45266;48.756;9.246;2022-07-30T02:26:23;6.13;;;5.60;;
55647;SDS011;45266;48.756;9.246;2022-07-30T02:27:27;8.85;;;6.60;;
55647;SDS011;45266;48.756;9.246;2022-07-30T02:28:32;6.22;;;5.63;;
55647;SDS011;45266;48.756;9.246;2022-07-30T02:29:38;8.80;;;6.30;;
55647;SDS011;45266;48.756;9.246;2022-07-30T02:30:49;8.07;;;6.20;;
55647;SDS011;45266;48.756;9.246;2022-07-30T02:31:53;7.13;;;6.25;;
55647;SDS011;45266;48.756;9.246;2022-07-30T02:33:00;12.48;;;11.18;;
55647;SDS011;45266;48.756;9.246;2022-07-30T02:34:04;14.48;;;10.52;;
55647;SDS011;45266;48.756;9.246;2022-07-30T02:35:19;15.13;;;9.23;;
55647;SDS011;45266;48.756;9.246;2022-07-30T02:36:23;9.88;;;7.97;;
55647;SDS011;45266;48.756;9.246;2022-07-30T02:37:28;8.35;;;7.47;;
55647;SDS011;45266;48.756;9.246;2022-07-30T02:38:44;6.70;;;6.10;;
55647;SDS011;45266;48.756;9.246;2022-07-30T02:39:48;7.00;;;6.00;;
55647;SDS011;45266;48.756;9.246;2022-07-30T02:40:53;9.55;;;6.22;;
55647;SDS011;45266;48.756;9.246;2022-07-30T02:41:57;7.00;;;5.90;;
55647;SDS011;45266;48.756;9.246;2022-07-30T02:43:00;6.65;;;5.97;;
55647;SDS011;45266;48.756;9.246;2022-07-30T02:44:02;7.00;;;6.30;;
55647;SDS011;45266;48.756;9.246;2022-07-30T02:45:05;12.10;;;6.57;;
55647;SDS011;45266;48.756;9.246;2022-07-30T02:46:08;6.97;;;6.28;;
55647;SDS011;45266;48.756;9.246;2022-07-30T02:47:12;6.82;;;6.13;;
55647;SDS011;45266;48.756;9.246;2022-07-30T02:48:17;7.80;;;6.53;;
55647;SDS011;45266;48.756;9.246;2022-07-30T02:49:35;7.13;;;6.38;;
55647;SDS011;45266;48.756;9.246;2022-07-30T02:50:39;8.43;;;6.88;;
55647;SDS011;45266;48.756;9.246;2022-07-30T02:51:42;6.70;;;6.10;;
55647;SDS011;45266;48.756;9.246;2022-07-30T02:52:47;8.75;;;6.50;;
55647;SDS011;45266;48.756;9.246;2022-07-30T02:53:51;7.72;;;6.80;;
55647;SDS011;45266;48.756;9.246;2022-07-30T02:54:55;6.22;;;5.72;;
55647;SDS011;45266;48.756;9.246;2022-07-30T02:55:58;6.85;;;6.35;;
55647;SDS011;45266;48.756;9.246;2022-07-30T02:57:02;7.50;;;6.78;;
55647;SDS011;45266;48.756;9.246;2022-07-30T02:58:04;7.07;;;6.38;;
55647;SDS011;45266;48.756;9.246;2022-07-30T02:59:07;8.15;;;6.80;;
55647;SDS011;45266;48.756;9.246;2022-07-30T03:00:11;7.40;;;6.72;;
55647;SDS011;45266;48.756;9.246;2022-07-30T03:01:14;7.47;;;6.68;;
55647;SDS011;45266;48.756;9.246;2022-07-30T03:02:18;9.68;;;6.65;;
55647;SDS011;45266;48.756;9.246;2022-07-30T03:03:30;9.48;;;6.30;;
55647;SDS011;45266;48.756;9.246;2022-07-30T03:04:33;7.05;;;6.35;;
55647;SDS011;45266;48.756;9.246;2022-07-30T03:05:37;6.47;;;5.88;;
55647;SDS011;45266;48.756;9.246;2022-07-30T03:06:41;7.05;;;6.32;;
55647;SDS011;45266;48.756;9.246;2022-07-30T03:07:44;8.00;;;6.15;;
55647;SDS011;45266;48.756;9.246;2022-07-30T03:08:47;7.00;;;6.07;;
55647;SDS011;45266;48.756;9.246;2022-07-30T03:09:49;9.25;;;6.70;;
55647;SDS011;45266;48.756;9.246;2022-07-30T03:10:56;17.63;;;7.57;;
55647;SDS011;45266;48.756;9.246;2022-07-30T03:11:58;7.22;;;5.68;;
55647;SDS011;45266;48.756;9.246;2022-07-30T03:13:03;6.57;;;5.47;;
55647;SDS011;45266;48.756;9.246;2022-07-30T03:14:07;7.38;;;5.95;;
55647;SDS011;45266;48.756;9.246;2022-07-30T03:15:09;8.23;;;6.15;;
55647;SDS011;45266;48.756;9.246;2022-07-30T03:16:12;8.65;;;6.40;;
55647;SDS011;45266;48.756;9.246;2022-07-30T03:17:15;8.88;;;6.15;;
55647;SDS011;45266;48.756;9.246;2022-07-30T03:18:19;6.78;;;5.95;;
55647;SDS011;45266;48.756;9.246;2022-07-30T03:19:24;8.38;;;5.95;;
55647;SDS011;45266;48.756;9.246;2022-07-30T03:20:29;6.97;;;5.72;;
55647;SDS011;45266;48.756;9.246;2022-07-30T03:21:34;6.40;;;5.53;;
55647;SDS011;45266;48.756;9.246;2022-07-30T03:22:42;7.88;;;5.85;;
55647;SDS011;45266;48.756;9.246;2022-07-30T03:23:47;8.35;;;6.72;;
55647;SDS011;45266;48.756;9.246;2022-07-30T03:24:50;6.95;;;6.25;;
55647;SDS011;45266;48.756;9.246;2022-07-30T03:25:55;6.60;;;6.00;;
55647;SDS011;45266;48.756;9.246;2022-07-30T03:27:00;6.43;;;5.88;;
55647;SDS011;45266;48.756;9.246;2022-07-30T03:28:04;6.63;;;6.03;;
55647;SDS011;45266;48.756;9.246;2022-07-30T03:29:07;8.50;;;6.43;;
55647;SDS011;45266;48.756;9.246;2022-07-30T03:30:10;7.65;;;6.50;;
55647;SDS011;45266;48.756;9.246;2022-07-30T03:31:13;9.02;;;5.93;;
55647;SDS011;45266;48.756;9.246;2022-07-30T03:32:16;8.05;;;7.25;;
55647;SDS011;45266;48.756;9.246;2022-07-30T03:33:26;7.25;;;6.40;;
55647;SDS011;45266;48.756;9.246;2022-07-30T03:34:39;8.75;;;6.55;;
55647;SDS011;45266;48.756;9.246;2022-07-30T03:35:44;7.68;;;6.38;;
55647;SDS011;45266;48.756;9.246;2022-07-30T03:36:47;9.38;;;6.22;;
55647;SDS011;45266;48.756;9.246;2022-07-30T03:37:50;6.88;;;6.28;;
55647;SDS011;45266;48.756;9.246;2022-07-30T03:38:53;8.02;;;6.57;;
55647;SDS011;45266;48.756;9.246;2022-07-30T03:39:55;7.43;;;6.60;;
55647;SDS011;45266;48.756;9.246;2022-07-30T03:40:58;7.75;;;7.05;;
55647;SDS011;45266;48.756;9.246;2022-07-30T03:42:01;11.38;;;6.78;;
55647;SDS011;45266;48.756;9.246;2022-07-30T03:43:03;11.98;;;7.13;;
55647;SDS011;45266;48.756;9.246;2022-07-30T03:44:26;7.18;;;6.22;;
55647;SDS011;45266;48.756;9.246;2022-07-30T03:45:30;7.80;;;6.20;;
55647;SDS011;45266;48.756;9.246;2022-07-30T03:46:34;7.95;;;5.78;;
55647;SDS011;45266;48.756;9.246;2022-07-30T03:47:38;7.40;;;6.20;;
55647;SDS011;45266;48.756;9.246;2022-07-30T03:48:42;8.60;;;6.60;;
55647;SDS011;45266;48.756;9.246;2022-07-30T03:49:44;9.18;;;6.82;;
55647;SDS011;45266;48.756;9.246;2022-07-30T03:50:46;8.00;;;6.93;;
55647;SDS011;45266;48.756;9.246;2022-07-30T03:51:49;7.47;;;6.82;;
55647;SDS011;45266;48.756;9.246;2022-07-30T03:52:52;6.90;;;6.30;;
55647;SDS011;45266;48.756;9.246;2022-07-30T03:53:55;6.65;;;5.95;;
55647;SDS011;45266;48.756;9.246;2022-07-30T03:54:57;12.20;;;7.20;;
55647;SDS011;45266;48.756;9.246;2022-07-30T03:55:59;8.10;;;7.05;;
55647;SDS011;45266;48.756;9.246;2022-07-30T03:57:02;6.63;;;5.78;;
55647;SDS011;45266;48.756;9.246;2022-07-30T03:58:06;6.80;;;5.97;;
55647;SDS011;45266;48.756;9.246;2022-07-30T03:59:08;8.95;;;6.38;;
55647;SDS011;45266;48.756;9.246;2022-07-30T04:00:13;6.70;;;6.20;;
55647;SDS011;45266;48.756;9.246;2022-07-30T04:01:16;6.78;;;6.18;;
55647;SDS011;45266;48.756;9.246;2022-07-30T04:02:18;7.72;;;6.85;;
55647;SDS011;45266;48.756;9.246;2022-07-30T04:03:26;7.72;;;7.03;;
55647;SDS011;45266;48.756;9.246;2022-07-30T04:04:30;7.13;;;6.45;;
55647;SDS011;45266;48.756;9.246;2022-07-30T04:05:32;6.95;;;5.95;;
55647;SDS011;45266;48.756;9.246;2022-07-30T04:06:41;7.40;;;6.57;;
55647;SDS011;45266;48.756;9.246;2022-07-30T04:07:45;7.60;;;6.38;;
55647;SDS011;45266;48.756;9.246;2022-07-30T04:08:47;7.47;;;6.78;;
55647;SDS011;45266;48.756;9.246;2022-07-30T04:09:49;8.60;;;7.05;;
55647;SDS011;45266;48.756;9.246;2022-07-30T04:10:51;7.90;;;7.20;;
55647;SDS011;45266;48.756;9.246;2022-07-30T04:11:53;8.55;;;6.95;;
55647;SDS011;45266;48.756;9.246;2022-07-30T04:12:55;7.45;;;6.65;;
55647;SDS011;45266;48.756;9.246;2022-07-30T04:13:56;10.02;;;6.82;;
55647;SDS011;45266;48.756;9.246;2022-07-30T04:14:58;8.32;;;6.82;;
55647;SDS011;45266;48.756;9.246;2022-07-30T04:16:01;8.35;;;6.38;;
55647;SDS011;45266;48.756;9.246;2022-07-30T04:17:46;10.57;;;7.18;;
55647;SDS011;45266;48.756;9.246;2022-07-30T04:18:52;8.20;;;7.50;;
55647;SDS011;45266;48.756;9.246;2022-07-30T04:20:00;7.97;;;7.18;;
55647;SDS011;45266;48.756;9.246;2022-07-30T04:21:25;9.23;;;6.70;;
55647;SDS011;45266;48.756;9.246;2022-07-30T04:22:31;7.47;;;6.78;;
55647;SDS011;45266;48.756;9.246;2022-07-30T04:23:35;7.95;;;7.07;;
55647;SDS011;45266;48.756;9.246;2022-07-30T04:24:59;9.95;;;6.80;;
55647;SDS011;45266;48.756;9.246;2022-07-30T04:26:02;9.23;;;7.43;;
55647;SDS011;45266;48.756;9.246;2022-07-30T04:27:04;7.45;;;6.75;;
55647;SDS011;45266;48.756;9.246;2022-07-30T04:28:07;7.85;;;6.78;;
55647;SDS011;45266;48.756;9.246;2022-07-30T04:29:10;10.35;;;6.88;;
55647;SDS011;45266;48.756;9.246;2022-07-30T04:30:14;7.38;;;6.68;;
55647;SDS011;45266;48.756;9.246;2022-07-30T04:31:16;7.78;;;7.07;;
55647;SDS011;45266;48.756;9.246;2022-07-30T04:32:18;7.47;;;6.75;;
55647;SDS011;45266;48.756;9.246;2022-07-30T04:33:20;8.23;;;7.40;;
55647;SDS011;45266;48.756;9.246;2022-07-30T04:34:22;9.40;;;7.05;;
55647;SDS011;45266;48.756;9.246;2022-07-30T04:35:27;10.50;;;7.45;;
55647;SDS011;45266;48.756;9.246;2022-07-30T04:36:49;7.15;;;6.45;;
55647;SDS011;45266;48.756;9.246;2022-07-30T04:37:51;7.65;;;6.95;;
55647;SDS011;45266;48.756;9.246;2022-07-30T04:38:53;10.35;;;7.30;;
55647;SDS011;45266;48.756;9.246;2022-07-30T04:39:55;12.00;;;7.60;;
55647;SDS011;45266;48.756;9.246;2022-07-30T04:41:00;7.97;;;7.18;;
55647;SDS011;45266;48.756;9.246;2022-07-30T04:42:02;9.55;;;8.20;;
55647;SDS011;45266;48.756;9.246;2022-07-30T04:43:03;10.32;;;7.35;;
55647;SDS011;45266;48.756;9.246;2022-07-30T04:44:05;10.25;;;8.02;;
55647;SDS011;45266;48.756;9.246;2022-07-30T04:45:07;8.50;;;7.65;;
55647;SDS011;45266;48.756;9.246;2022-07-30T04:46:12;8.52;;;7.70;;
55647;SDS011;45266;48.756;9.246;2022-07-30T04:47:15;8.07;;;7.38;;
55647;SDS011;45266;48.756;9.246;2022-07-30T04:48:17;8.02;;;7.22;;
55647;SDS011;45266;48.756;9.246;2022-07-30T04:49:19;9.80;;;7.90;;
55647;SDS011;45266;48.756;9.246;2022-07-30T04:50:23;8.85;;;7.82;;
55647;SDS011;45266;48.756;9.246;2022-07-30T04:51:28;9.02;;;7.65;;
55647;SDS011;45266;48.756;9.246;2022-07-30T04:52:34;8.50;;;7.55;;
55647;SDS011;45266;48.756;9.246;2022-07-30T04:53:37;8.65;;;7.43;;
55647;SDS011;45266;48.756;9.246;2022-07-30T04:56:11;8.75;;;7.75;;
55647;SDS011;45266;48.756;9.246;2022-07-30T04:57:16;9.80;;;7.07;;
55647;SDS011;45266;48.756;9.246;2022-07-30T04:58:19;8.63;;;7.85;;
55647;SDS011;45266;48.756;9.246;2022-07-30T04:59:22;8.63;;;7.82;;
55647;SDS011;45266;48.756;9.246;2022-07-30T05:00:25;8.90;;;8.00;;
55647;SDS011;45266;48.756;9.246;2022-07-30T05:01:33;8.63;;;7.72;;
55647;SDS011;45266;48.756;9.246;2022-07-30T05:02:41;10.30;;;7.43;;
55647;SDS011;45266;48.756;9.246;2022-07-30T05:03:45;8.98;;;7.18;;
55647;SDS011;45266;48.756;9.246;2022-07-30T05:04:47;9.07;;;6.85;;
55647;SDS011;45266;48.756;9.246;2022-07-30T05:05:50;9.23;;;7.07;;
55647;SDS011;45266;48.756;9.246;2022-07-30T05:06:57;8.80;;;8.00;;
55647;SDS011;45266;48.756;9.246;2022-07-30T05:08:01;7.90;;;7.10;;
55647;SDS011;45266;48.756;9.246;2022-07-30T05:09:04;7.93;;;7.22;;
55647;SDS011;45266;48.756;9.246;2022-07-30T05:10:06;8.40;;;7.25;;
55647;SDS011;45266;48.756;9.246;2022-07-30T05:11:12;8.20;;;7.13;;
55647;SDS011;45266;48.756;9.246;2022-07-30T05:12:14;8.35;;;7.45;;
55647;SDS011;45266;48.756;9.246;2022-07-30T05:13:16;8.50;;;7.50;;
55647;SDS011;45266;48.756;9.246;2022-07-30T05:14:22;8.68;;;7.35;;
55647;SDS011;45266;48.756;9.246;2022-07-30T05:15:25;9.02;;;8.23;;
55647;SDS011;45266;48.756;9.246;2022-07-30T05:16:37;9.45;;;8.65;;
55647;SDS011;45266;48.756;9.246;2022-07-30T05:17:39;10.07;;;9.07;;
55647;SDS011;45266;48.756;9.246;2022-07-30T05:18:41;13.02;;;8.60;;
55647;SDS011;45266;48.756;9.246;2022-07-30T05:19:43;8.30;;;7.43;;
55647;SDS011;45266;48.756;9.246;2022-07-30T05:20:48;7.63;;;6.72;;
55647;SDS011;45266;48.756;9.246;2022-07-30T05:21:50;8.43;;;7.57;;
55647;SDS011;45266;48.756;9.246;2022-07-30T05:22:52;7.93;;;6.72;;
55647;SDS011;45266;48.756;9.246;2022-07-30T05:23:53;9.50;;;6.60;;
55647;SDS011;45266;48.756;9.246;2022-07-30T05:24:56;8.18;;;7.38;;
55647;SDS011;45266;48.756;9.246;2022-07-30T05:25:57;8.70;;;7.88;;
55647;SDS011;45266;48.756;9.246;2022-07-30T05:26:59;7.55;;;6.88;;
55647;SDS011;45266;48.756;9.246;2022-07-30T05:28:02;7.90;;;7.18;;
55647;SDS011;45266;48.756;9.246;2022-07-30T05:29:04;8.60;;;7.70;;
55647;SDS011;45266;48.756;9.246;2022-07-30T05:30:07;8.07;;;7.22;;
55647;SDS011;45266;48.756;9.246;2022-07-30T05:31:12;8.52;;;6.80;;
55647;SDS011;45266;48.756;9.246;2022-07-30T05:32:16;8.38;;;7.32;;
55647;SDS011;45266;48.756;9.246;2022-07-30T05:33:19;7.35;;;6.65;;
55647;SDS011;45266;48.756;9.246;2022-07-30T05:34:41;7.45;;;6.75;;
55647;SDS011;45266;48.756;9.246;2022-07-30T05:35:49;9.25;;;6.60;;
55647;SDS011;45266;48.756;9.246;2022-07-30T05:36:51;7.47;;;6.57;;
55647;SDS011;45266;48.756;9.246;2022-07-30T05:37:53;11.23;;;7.10;;
55647;SDS011;45266;48.756;9.246;2022-07-30T05:38:55;8.68;;;7.80;;
55647;SDS011;45266;48.756;9.246;2022-07-30T05:39:57;8.07;;;7.30;;
55647;SDS011;45266;48.756;9.246;2022-07-30T05:41:03;9.90;;;7.75;;
55647;SDS011;45266;48.756;9.246;2022-07-30T05:42:25;9.30;;;7.50;;
55647;SDS011;45266;48.756;9.246;2022-07-30T05:43:27;9.20;;;8.00;;
55647;SDS011;45266;48.756;9.246;2022-07-30T05:44:28;9.57;;;8.55;;
55647;SDS011;45266;48.756;9.246;2022-07-30T05:45:30;10.65;;;8.82;;
55647;SDS011;45266;48.756;9.246;2022-07-30T05:46:32;9.75;;;8.85;;
55647;SDS011;45266;48.756;9.246;2022-07-30T05:47:34;8.52;;;7.70;;
55647;SDS011;45266;48.756;9.246;2022-07-30T05:48:36;9.30;;;7.43;;
55647;SDS011;45266;48.756;9.246;2022-07-30T05:49:38;9.77;;;7.63;;
55647;SDS011;45266;48.756;9.246;2022-07-30T05:50:39;7.60;;;6.80;;
55647;SDS011;45266;48.756;9.246;2022-07-30T05:51:41;7.75;;;6.85;;
55647;SDS011;45266;48.756;9.246;2022-07-30T05:52:44;8.32;;;7.63;;
55647;SDS011;45266;48.756;9.246;2022-07-30T05:53:46;8.90;;;7.38;;
55647;SDS011;45266;48.756;9.246;2022-07-30T05:54:48;8.63;;;7.72;;
55647;SDS011;45266;48.756;9.246;2022-07-30T05:55:50;7.38;;;6.63;;
55647;SDS011;45266;48.756;9.246;2022-07-30T05:56:51;7.97;;;5.90;;
55647;SDS011;45266;48.756;9.246;2022-07-30T05:57:53;8.50;;;6.78;;
55647;SDS011;45266;48.756;9.246;2022-07-30T05:58:55;7.60;;;6.97;;
55647;SDS011;45266;48.756;9.246;2022-07-30T05:59:56;7.82;;;7.00;;
55647;SDS011;45266;48.756;9.246;2022-07-30T06:00:58;7.18;;;6.57;;
55647;SDS011;45266;48.756;9.246;2022-07-30T06:02:00;8.85;;;6.13;;
55647;SDS011;45266;48.756;9.246;2022-07-30T06:03:03;6.88;;;6.18;;
55647;SDS011;45266;48.756;9.246;2022-07-30T06:04:05;7.32;;;6.72;;
55647;SDS011;45266;48.756;9.246;2022-07-30T06:05:07;7.10;;;6.15;;
55647;SDS011;45266;48.756;9.246;2022-07-30T06:06:09;7.03;;;6.32;;
55647;SDS011;45266;48.756;9.246;2022-07-30T06:07:10;10.80;;;6.07;;
55647;SDS011;45266;48.756;9.246;2022-07-30T06:08:12;7.13;;;6.43;;
55647;SDS011;45266;48.756;9.246;2022-07-30T06:09:14;6.90;;;6.40;;
55647;SDS011;45266;48.756;9.246;2022-07-30T06:10:16;10.23;;;6.57;;
55647;SDS011;45266;48.756;9.246;2022-07-30T06:11:18;7.60;;;6.90;;
55647;SDS011;45266;48.756;9.246;2022-07-30T06:12:20;6.68;;;6.03;;
55647;SDS011;45266;48.756;9.246;2022-07-30T06:13:21;7.93;;;6.72;;
55647;SDS011;45266;48.756;9.246;2022-07-30T06:14:23;7.78;;;6.82;;
55647;SDS011;45266;48.756;9.246;2022-07-30T06:15:25;6.93;;;6.35;;
55647;SDS011;45266;48.756;9.246;2022-07-30T06:16:27;6.93;;;6.22;;
55647;SDS011;45266;48.756;9.246;2022-07-30T06:17:29;11.57;;;7.07;;
55647;SDS011;45266;48.756;9.246;2022-07-30T06:18:41;7.15;;;6.45;;
55647;SDS011;45266;48.756;9.246;2022-07-30T06:19:43;7.68;;;6.88;;
55647;SDS011;45266;48.756;9.246;2022-07-30T06:20:45;7.65;;;6.82;;
55647;SDS011;45266;48.756;9.246;2022-07-30T06:21:46;9.77;;;7.63;;
55647;SDS011;45266;48.756;9.246;2022-07-30T06:23:07;8.02;;;7.22;;
55647;SDS011;45266;48.756;9.246;2022-07-30T06:24:08;12.90;;;6.88;;
55647;SDS011;45266;48.756;9.246;2022-07-30T06:25:11;7.00;;;6.22;;
55647;SDS011;45266;48.756;9.246;2022-07-30T06:26:18;10.38;;;6.85;;
55647;SDS011;45266;48.756;9.246;2022-07-30T06:27:20;7.78;;;6.90;;
55647;SDS011;45266;48.756;9.246;2022-07-30T06:28:22;8.07;;;6.70;;
55647;SDS011;45266;48.756;9.246;2022-07-30T06:29:40;9.93;;;6.82;;
55647;SDS011;45266;48.756;9.246;2022-07-30T06:30:42;7.75;;;5.93;;
55647;SDS011;45266;48.756;9.246;2022-07-30T06:31:48;7.25;;;6.50;;
55647;SDS011;45266;48.756;9.246;2022-07-30T06:32:50;7.22;;;6.53;;